createdAt,value
2019-03-30T03:07:24.797Z,18.1
2019-03-30T03:08:15.285Z,18.2
2019-03-30T03:09:05.557Z,18.4
2019-03-30T03:09:54.834Z,18.6
2019-03-30T03:10:45.604Z,18.8
2019-03-30T03:11:34.319Z,18.9
2019-03-30T03:12:24.625Z,19.1
2019-03-30T03:13:14.716Z,19.2
2019-03-30T03:14:05.159Z,19.3
2019-03-30T03:14:54.527Z,19.4
2019-03-30T03:15:45.049Z,19.5
2019-03-30T03:16:37.538Z,19.5
2019-03-30T03:17:26.129Z,19.5
2019-03-30T03:18:16.298Z,19.5
2019-03-30T03:19:05.552Z,19.5
2019-03-30T03:19:54.882Z,19.5
2019-03-30T03:20:45.411Z,19.5
2019-03-30T03:21:35.045Z,19.5
2019-03-30T03:22:25.436Z,19.5
2019-03-30T03:23:16.187Z,19.5
2019-03-30T03:24:06.314Z,19.5
2019-03-30T03:24:55.819Z,19.5
2019-03-30T03:25:45.893Z,19.5
2019-03-30T03:26:36.023Z,19.5
2019-03-30T03:27:26.230Z,19.5
2019-03-30T03:28:16.968Z,19.4
2019-03-30T03:29:06.614Z,19.4
2019-03-30T03:29:56.246Z,19.4
2019-03-30T03:30:46.955Z,19.3
2019-03-30T03:31:37.116Z,19.3
2019-03-30T03:32:26.521Z,19.3
2019-03-30T03:33:17.576Z,19.2
2019-03-30T03:34:07.839Z,19.3
2019-03-30T03:34:57.240Z,19.3
2019-03-30T03:35:47.033Z,19.3
2019-03-30T03:36:36.825Z,19.2
2019-03-30T03:37:47.968Z,18.6
2019-03-30T03:38:16.968Z,18
2019-03-30T03:39:07.403Z,17.9
2019-03-30T03:39:56.881Z,17.8
2019-03-30T03:40:47.212Z,17.8
2019-03-30T03:41:37.648Z,17.8
2019-03-30T03:42:27.655Z,17.9
2019-03-30T03:43:17.122Z,18
2019-03-30T03:44:07.148Z,18
2019-03-30T03:44:57.228Z,18.1
2019-03-30T03:45:47.880Z,18.1
2019-03-30T03:46:36.947Z,18.1
2019-03-30T03:47:27.043Z,18.1
2019-03-30T03:48:17.934Z,18.2
2019-03-30T03:49:06.708Z,18.4
2019-03-30T03:49:58.545Z,18.6
2019-03-30T03:50:47.892Z,18.8
2019-03-30T03:51:38.534Z,19
2019-03-30T03:52:27.511Z,19.2
2019-03-30T03:53:17.297Z,19.4
2019-03-30T03:54:07.235Z,19.4
2019-03-30T03:54:57.832Z,19.5
2019-03-30T03:55:47.697Z,19.5
2019-03-30T03:56:38.907Z,19.5
2019-03-30T03:57:28.491Z,19.6
2019-03-30T03:58:19.094Z,19.5
2019-03-30T03:59:08.069Z,19.6
2019-03-30T03:59:57.453Z,19.6
2019-03-30T04:00:48.742Z,19.6
2019-03-30T04:01:39.287Z,19.5
2019-03-30T04:02:28.488Z,19.5
2019-03-30T04:03:19.364Z,19.5
2019-03-30T04:04:09.031Z,19.5
2019-03-30T04:04:58.966Z,19.5
2019-03-30T04:05:49.779Z,19.3
2019-03-30T04:06:39.533Z,18.6
2019-03-30T04:07:29.477Z,18.2
2019-03-30T04:08:19.223Z,17.9
2019-03-30T04:09:09.305Z,17.8
2019-03-30T04:09:58.866Z,17.8
2019-03-30T04:10:49.795Z,17.9
2019-03-30T04:11:38.660Z,17.9
2019-03-30T04:12:29.817Z,18
2019-03-30T04:13:19.226Z,18.1
2019-03-30T04:14:10.271Z,18.1
2019-03-30T04:14:59.060Z,18.1
2019-03-30T04:15:49.975Z,18
2019-03-30T04:16:40.004Z,18
2019-03-30T04:17:29.491Z,18.1
2019-03-30T04:18:20.016Z,18.3
2019-03-30T04:19:10.098Z,18.6
2019-03-30T04:19:59.991Z,18.8
2019-03-30T04:20:49.597Z,19
2019-03-30T04:21:53.553Z,19.2
2019-03-30T04:22:28.780Z,19.3
2019-03-30T04:23:19.398Z,19.4
2019-03-30T04:24:10.024Z,19.5
2019-03-30T04:24:59.459Z,19.6
2019-03-30T04:25:49.562Z,19.6
2019-03-30T04:26:39.421Z,19.6
2019-03-30T04:27:30.351Z,19.6
2019-03-30T04:28:20.517Z,19.6
2019-03-30T04:29:10.518Z,19.6
2019-03-30T04:30:01.315Z,19.5
2019-03-30T04:30:50.288Z,19.5
2019-03-30T04:31:41.405Z,19.6
2019-03-30T04:32:30.743Z,19.5
2019-03-30T04:33:21.404Z,19.4
2019-03-30T04:34:10.630Z,19.4
2019-03-30T04:35:00.497Z,19.4
2019-03-30T04:35:50.585Z,18.8
2019-03-30T04:36:39.828Z,18.3
2019-03-30T04:37:30.428Z,18
2019-03-30T04:38:24.477Z,17.8
2019-03-30T04:39:11.052Z,17.8
2019-03-30T04:40:01.561Z,17.8
2019-03-30T04:40:51.410Z,17.9
2019-03-30T04:41:41.446Z,17.9
2019-03-30T04:42:31.754Z,18
2019-03-30T04:43:21.660Z,18
2019-03-30T04:44:11.719Z,18.1
2019-03-30T04:45:02.366Z,18.1
2019-03-30T04:45:52.214Z,18
2019-03-30T04:46:41.650Z,18
2019-03-30T04:47:32.222Z,18.1
2019-03-30T04:48:22.611Z,18.3
2019-03-30T04:49:12.318Z,18.5
2019-03-30T04:50:02.073Z,18.8
2019-03-30T04:50:51.330Z,18.9
2019-03-30T04:51:41.081Z,19.1
2019-03-30T04:52:31.491Z,19.2
2019-03-30T04:53:21.743Z,19.3
2019-03-30T04:54:11.574Z,19.4
2019-03-30T04:55:02.383Z,19.4
2019-03-30T04:55:52.059Z,19.4
2019-03-30T04:56:42.631Z,19.4
2019-03-30T04:57:32.420Z,19.4
2019-03-30T04:58:21.897Z,19.3
2019-03-30T04:59:12.446Z,19.4
2019-03-30T05:00:03.013Z,19.3
2019-03-30T05:00:53.122Z,19.3
2019-03-30T05:01:43.555Z,19.3
2019-03-30T05:02:32.339Z,19.3
2019-03-30T05:03:22.977Z,19.3
2019-03-30T05:04:13.120Z,19.3
2019-03-30T05:05:03.893Z,18.9
2019-03-30T05:05:53.180Z,18.4
2019-03-30T05:06:43.523Z,18
2019-03-30T05:07:33.261Z,17.8
2019-03-30T05:08:23.598Z,17.8
2019-03-30T05:09:13.947Z,17.8
2019-03-30T05:10:04.358Z,17.8
2019-03-30T05:10:53.053Z,17.8
2019-03-30T05:11:44.138Z,17.9
2019-03-30T05:12:33.900Z,17.9
2019-03-30T05:13:23.413Z,18
2019-03-30T05:14:14.350Z,18.1
2019-03-30T05:15:04.367Z,18
2019-03-30T05:15:53.570Z,18
2019-03-30T05:16:44.265Z,18.2
2019-03-30T05:17:53.429Z,18.4
2019-03-30T05:19:14.057Z,18.8
2019-03-30T05:20:04.437Z,19.1
2019-03-30T05:20:54.744Z,19.2
2019-03-30T05:21:43.775Z,19.3
2019-03-30T05:22:34.217Z,19.4
2019-03-30T05:23:23.702Z,19.4
2019-03-30T05:24:13.989Z,19.5
2019-03-30T05:25:04.700Z,19.5
2019-03-30T05:25:54.102Z,19.5
2019-03-30T05:26:45.197Z,19.5
2019-03-30T05:27:34.997Z,19.5
2019-03-30T05:28:25.141Z,19.4
2019-03-30T05:29:14.574Z,19.4
2019-03-30T05:30:05.741Z,19.4
2019-03-30T05:30:54.722Z,19.4
2019-03-30T05:31:45.034Z,19.4
2019-03-30T05:32:35.377Z,19.4
2019-03-30T05:33:25.648Z,19.4
2019-03-30T05:34:15.175Z,19
2019-03-30T05:35:05.014Z,18.4
2019-03-30T05:35:55.549Z,18
2019-03-30T05:36:45.132Z,17.9
2019-03-30T05:37:35.740Z,17.8
2019-03-30T05:38:26.141Z,17.8
2019-03-30T05:39:15.797Z,17.8
2019-03-30T05:40:06.177Z,17.9
2019-03-30T05:40:56.072Z,17.9
2019-03-30T05:41:46.026Z,18
2019-03-30T05:42:36.308Z,18
2019-03-30T05:43:26.153Z,18
2019-03-30T05:44:15.921Z,17.9
2019-03-30T05:45:07.681Z,18
2019-03-30T05:45:55.183Z,18.2
2019-03-30T05:46:45.471Z,18.4
2019-03-30T05:47:35.550Z,18.5
2019-03-30T05:48:26.233Z,18.8
2019-03-30T05:49:16.230Z,18.9
2019-03-30T05:50:06.834Z,19.1
2019-03-30T05:50:56.126Z,19.3
2019-03-30T05:51:45.872Z,19.4
2019-03-30T05:52:40.068Z,19.4
2019-03-30T05:53:26.332Z,19.5
2019-03-30T05:54:17.113Z,19.5
2019-03-30T05:55:07.250Z,19.5
2019-03-30T05:55:56.535Z,19.5
2019-03-30T05:56:47.030Z,19.4
2019-03-30T05:57:36.372Z,19.4
2019-03-30T05:58:26.975Z,19.4
2019-03-30T05:59:17.298Z,19.5
2019-03-30T06:00:06.433Z,19.4
2019-03-30T06:00:57.417Z,19.4
2019-03-30T06:01:46.414Z,19.4
2019-03-30T06:02:37.462Z,19.4
2019-03-30T06:05:25.087Z,17.9
2019-03-30T06:06:14.860Z,17.8
2019-03-30T06:07:05.056Z,17.8
2019-03-30T06:07:55.157Z,17.8
2019-03-30T06:08:45.097Z,17.9
2019-03-30T06:09:34.327Z,17.9
2019-03-30T06:10:24.891Z,18
2019-03-30T06:11:14.144Z,18.1
2019-03-30T06:12:05.272Z,18.1
2019-03-30T06:12:55.172Z,18.1
2019-03-30T06:13:45.434Z,18.1
2019-03-30T06:14:35.651Z,18.1
2019-03-30T06:15:25.331Z,18.1
2019-03-30T06:16:15.014Z,18
2019-03-30T06:17:05.664Z,18
2019-03-30T06:17:55.130Z,18
2019-03-30T06:18:45.218Z,17.9
2019-03-30T06:19:35.875Z,17.9
2019-03-30T06:20:25.032Z,17.8
2019-03-30T06:21:15.942Z,17.8
2019-03-30T06:22:06.049Z,17.8
2019-03-30T06:22:55.768Z,17.8
2019-03-30T06:23:49.580Z,17.8
2019-03-30T06:24:35.335Z,17.8
2019-03-30T06:25:26.489Z,17.8
2019-03-30T06:26:15.341Z,17.8
2019-03-30T06:27:06.088Z,17.8
2019-03-30T06:27:55.866Z,17.9
2019-03-30T06:28:46.501Z,17.9
2019-03-30T06:29:35.971Z,18
2019-03-30T06:30:26.431Z,18.1
2019-03-30T06:31:16.653Z,18
2019-03-30T06:32:06.278Z,17.6
2019-03-30T06:32:56.778Z,17.4
2019-03-30T06:33:46.839Z,17.3
2019-03-30T06:34:37.211Z,17.3
2019-03-30T06:35:27.343Z,17.3
2019-03-30T06:36:17.361Z,17.4
2019-03-30T06:37:06.861Z,17.5
2019-03-30T06:37:57.165Z,17.6
2019-03-30T06:38:46.893Z,17.6
2019-03-30T06:39:40.925Z,17.7
2019-03-30T06:40:27.648Z,17.8
2019-03-30T06:41:17.320Z,17.8
2019-03-30T06:42:07.413Z,17.8
2019-03-30T06:42:57.564Z,17.8
2019-03-30T06:43:46.783Z,17.8
2019-03-30T06:44:35.925Z,17.8
2019-03-30T06:45:27.450Z,17.7
2019-03-30T06:46:17.720Z,17.7
2019-03-30T06:47:07.935Z,17.7
2019-03-30T06:47:58.152Z,17.6
2019-03-30T06:48:48.215Z,17.6
2019-03-30T06:49:38.249Z,17.5
2019-03-30T06:50:28.304Z,17.5
2019-03-30T06:51:17.794Z,17.4
2019-03-30T06:52:08.217Z,17.4
2019-03-30T06:53:08.634Z,17.4
2019-03-30T06:53:48.517Z,17.4
2019-03-30T06:54:38.597Z,17.4
2019-03-30T06:55:28.409Z,17.5
2019-03-30T06:56:18.508Z,17.6
2019-03-30T06:57:08.766Z,17.6
2019-03-30T06:57:58.354Z,17.7
2019-03-30T06:58:48.664Z,17.8
2019-03-30T06:59:38.971Z,17.8
2019-03-30T07:00:28.202Z,17.6
2019-03-30T07:01:18.048Z,17.4
2019-03-30T07:02:08.467Z,17.3
2019-03-30T07:02:58.724Z,17.2
2019-03-30T07:05:24.554Z,17.4
2019-03-30T07:06:14.874Z,17.6
2019-03-30T07:07:04.678Z,17.6
2019-03-30T07:07:55.255Z,17.7
2019-03-30T07:08:44.903Z,17.8
2019-03-30T07:09:35.346Z,17.8
2019-03-30T07:10:25.139Z,17.8
2019-03-30T07:11:30.489Z,17.8
2019-03-30T07:12:05.683Z,17.8
2019-03-30T07:12:55.305Z,17.7
2019-03-30T07:13:45.456Z,17.7
2019-03-30T07:14:35.681Z,17.7
2019-03-30T07:15:25.491Z,17.7
2019-03-30T07:16:15.163Z,17.6
2019-03-30T07:17:08.991Z,17.6
2019-03-30T07:17:55.448Z,17.6
2019-03-30T07:18:44.951Z,17.5
2019-03-30T07:19:49.383Z,17.5
2019-03-30T07:20:25.385Z,17.4
2019-03-30T07:21:15.671Z,17.4
2019-03-30T07:22:06.053Z,17.3
2019-03-30T07:23:14.763Z,17.3
2019-03-30T07:23:45.265Z,17.4
2019-03-30T07:24:35.898Z,17.4
2019-03-30T07:25:25.902Z,17.5
2019-03-30T07:26:16.528Z,17.5
2019-03-30T07:27:06.388Z,17.6
2019-03-30T07:27:56.657Z,17.7
2019-03-30T07:28:48.640Z,17.8
2019-03-30T07:29:36.772Z,17.7
2019-03-30T07:30:26.575Z,17.4
2019-03-30T07:31:16.569Z,17.3
2019-03-30T07:32:07.182Z,17.3
2019-03-30T07:32:56.974Z,17.3
2019-03-30T07:33:46.757Z,17.3
2019-03-30T07:34:37.140Z,17.4
2019-03-30T07:35:26.640Z,17.5
2019-03-30T07:36:16.666Z,17.6
2019-03-30T07:37:06.773Z,17.6
2019-03-30T07:37:56.884Z,17.7
2019-03-30T07:38:47.127Z,17.7
2019-03-30T07:39:37.534Z,17.7
2019-03-30T07:40:26.984Z,17.7
2019-03-30T07:41:16.558Z,17.7
2019-03-30T07:42:07.162Z,17.7
2019-03-30T07:42:56.955Z,17.6
2019-03-30T07:43:47.294Z,17.6
2019-03-30T07:44:36.213Z,17.6
2019-03-30T07:45:27.649Z,17.5
2019-03-30T07:46:21.055Z,17.4
2019-03-30T07:47:08.045Z,17.4
2019-03-30T07:47:57.241Z,17.4
2019-03-30T07:48:47.874Z,17.3
2019-03-30T07:49:37.992Z,17.3
2019-03-30T07:50:27.677Z,17.3
2019-03-30T07:51:17.484Z,17.2
2019-03-30T07:52:08.266Z,17.1
2019-03-30T07:52:57.901Z,17.1
2019-03-30T07:53:54.873Z,17.1
2019-03-30T07:54:38.291Z,17.1
2019-03-30T07:55:28.447Z,17.1
2019-03-30T07:56:19.321Z,17.1
2019-03-30T07:57:26.458Z,17.2
2019-03-30T07:57:59.760Z,17.3
2019-03-30T07:58:48.351Z,17.3
2019-03-30T07:59:38.798Z,17.4
2019-03-30T08:00:36.078Z,17.6
2019-03-30T08:02:08.533Z,17.3
2019-03-30T08:03:13.841Z,17.2
2019-03-30T08:03:49.238Z,17.1
2019-03-30T08:04:39.466Z,17.2
2019-03-30T08:05:29.105Z,17.3
2019-03-30T08:06:19.205Z,17.3
2019-03-30T08:07:09.228Z,17.4
2019-03-30T08:07:58.995Z,17.5
2019-03-30T08:08:49.313Z,17.6
2019-03-30T08:09:42.955Z,17.6
2019-03-30T08:10:28.564Z,17.7
2019-03-30T08:11:22.761Z,17.7
2019-03-30T08:12:09.541Z,17.7
2019-03-30T08:12:59.150Z,17.7
2019-03-30T08:13:49.711Z,17.7
2019-03-30T08:14:38.872Z,17.7
2019-03-30T08:15:29.818Z,17.6
2019-03-30T08:16:19.674Z,17.6
2019-03-30T08:17:09.885Z,17.6
2019-03-30T08:18:00.368Z,17.5
2019-03-30T08:18:50.278Z,17.5
2019-03-30T08:19:39.407Z,17.4
2019-03-30T08:20:30.121Z,17.4
2019-03-30T08:21:20.177Z,17.3
2019-03-30T08:22:09.733Z,17.3
2019-03-30T08:23:00.607Z,17.3
2019-03-30T08:23:51.080Z,17.2
2019-03-30T08:24:40.194Z,17.2
2019-03-30T08:25:30.251Z,17.1
2019-03-30T08:26:20.530Z,17.1
2019-03-30T08:27:10.759Z,17.1
2019-03-30T08:28:15.435Z,17.1
2019-03-30T08:28:51.087Z,17.3
2019-03-30T08:29:40.518Z,17.3
2019-03-30T08:30:30.859Z,17.4
2019-03-30T08:31:20.959Z,17.5
2019-03-30T08:32:10.989Z,17.6
2019-03-30T08:33:00.567Z,17.4
2019-03-30T08:33:50.896Z,17.3
2019-03-30T08:34:41.186Z,17.2
2019-03-30T08:35:31.259Z,17.2
2019-03-30T08:36:21.091Z,17.3
2019-03-30T08:37:11.029Z,17.4
2019-03-30T08:38:01.386Z,17.4
2019-03-30T08:38:51.511Z,17.5
2019-03-30T08:39:40.784Z,17.6
2019-03-30T08:40:31.653Z,17.6
2019-03-30T08:41:22.291Z,17.6
2019-03-30T08:42:12.021Z,17.6
2019-03-30T08:43:01.536Z,17.7
2019-03-30T08:43:52.094Z,17.6
2019-03-30T08:44:41.738Z,17.6
2019-03-30T08:45:31.743Z,17.6
2019-03-30T08:46:21.821Z,17.6
2019-03-30T08:47:11.106Z,17.6
2019-03-30T08:48:02.111Z,17.6
2019-03-30T08:48:51.413Z,17.5
2019-03-30T08:49:42.203Z,17.4
2019-03-30T08:50:31.448Z,17.4
2019-03-30T08:51:26.073Z,17.4
2019-03-30T08:52:12.125Z,17.3
2019-03-30T08:53:02.606Z,17.3
2019-03-30T08:54:04.861Z,17.3
2019-03-30T08:54:42.863Z,17.2
2019-03-30T08:55:33.015Z,17.1
2019-03-30T08:56:22.728Z,17.1
2019-03-30T08:57:11.993Z,17.1
2019-03-30T08:58:02.873Z,17.1
2019-03-30T08:58:51.893Z,17.1
2019-03-30T08:59:43.215Z,17.2
2019-03-30T09:00:32.208Z,17.3
2019-03-30T09:01:37.171Z,17.3
2019-03-30T09:02:12.857Z,17.4
2019-03-30T09:03:03.554Z,17.5
2019-03-30T09:03:53.300Z,17.6
2019-03-30T09:04:43.031Z,17.5
2019-03-30T09:05:33.357Z,17.3
2019-03-30T09:06:23.705Z,17.3
2019-03-30T09:07:13.520Z,17.3
2019-03-30T09:08:02.799Z,17.3
2019-03-30T09:08:53.876Z,17.4
2019-03-30T09:09:42.640Z,17.5
2019-03-30T09:10:32.987Z,17.6
2019-03-30T09:11:23.769Z,17.7
2019-03-30T09:12:13.445Z,17.8
2019-03-30T09:13:03.723Z,17.7
2019-03-30T09:13:53.792Z,17.8
2019-03-30T09:14:44.032Z,17.8
2019-03-30T09:15:34.153Z,17.8
2019-03-30T09:16:23.987Z,17.7
2019-03-30T09:17:14.209Z,17.6
2019-03-30T09:18:04.574Z,17.6
2019-03-30T09:18:54.136Z,17.6
2019-03-30T09:19:43.936Z,17.5
2019-03-30T09:20:34.007Z,17.4
2019-03-30T09:21:23.569Z,17.4
2019-03-30T09:22:14.454Z,17.3
2019-03-30T09:23:04.984Z,17.3
2019-03-30T09:24:10.409Z,17.3
2019-03-30T09:24:44.254Z,17.2
2019-03-30T09:25:34.812Z,17.2
2019-03-30T09:26:26.441Z,17.1
2019-03-30T09:27:14.639Z,17.1
2019-03-30T09:28:04.802Z,17.1
2019-03-30T09:28:54.269Z,17.1
2019-03-30T09:29:44.933Z,17.1
2019-03-30T09:30:35.026Z,17.1
2019-03-30T09:31:25.085Z,17.1
2019-03-30T09:32:24.358Z,17.2
2019-03-30T09:33:05.396Z,17.3
2019-03-30T09:33:54.413Z,17.3
2019-03-30T09:34:45.001Z,17.3
2019-03-30T09:35:34.929Z,17.4
2019-03-30T09:36:25.014Z,17.4
2019-03-30T09:37:14.684Z,17.4
2019-03-30T09:38:04.986Z,17.3
2019-03-30T09:38:55.149Z,17.3
2019-03-30T09:39:44.691Z,17.3
2019-03-30T09:40:34.110Z,17.3
2019-03-30T09:41:25.257Z,17.3
2019-03-30T09:42:15.343Z,17.4
2019-03-30T09:43:04.639Z,17.5
2019-03-30T09:43:55.656Z,17.6
2019-03-30T09:44:45.392Z,17.6
2019-03-30T09:45:35.930Z,17.7
2019-03-30T09:46:25.521Z,17.7
2019-03-30T09:47:15.698Z,17.7
2019-03-30T09:48:06.259Z,17.7
2019-03-30T09:48:55.227Z,17.6
2019-03-30T09:49:45.507Z,17.6
2019-03-30T09:50:35.868Z,17.6
2019-03-30T09:51:26.180Z,17.6
2019-03-30T09:52:14.905Z,17.5
2019-03-30T09:53:06.129Z,17.4
2019-03-30T09:53:55.231Z,17.4
2019-03-30T09:54:45.902Z,17.4
2019-03-30T09:55:37.292Z,17.3
2019-03-30T09:56:26.032Z,17.3
2019-03-30T09:57:17.012Z,17.3
2019-03-30T09:58:07.041Z,17.3
2019-03-30T09:58:55.987Z,17.2
2019-03-30T09:59:46.509Z,17.2
2019-03-30T10:00:36.952Z,17.2
2019-03-30T10:01:27.242Z,17.1
2019-03-30T10:02:16.954Z,17.1
2019-03-30T10:03:10.434Z,17.1
2019-03-30T10:03:56.134Z,17.2
2019-03-30T10:06:37.492Z,17.4
2019-03-30T10:07:14.301Z,17.6
2019-03-30T10:08:04.256Z,17.6
2019-03-30T10:08:54.581Z,17.8
2019-03-30T10:09:43.646Z,17.5
2019-03-30T10:10:33.696Z,17.4
2019-03-30T10:11:24.179Z,17.4
2019-03-30T10:12:13.974Z,17.4
2019-03-30T10:13:04.701Z,17.4
2019-03-30T10:13:53.861Z,17.5
2019-03-30T10:14:44.154Z,17.6
2019-03-30T10:15:34.777Z,17.7
2019-03-30T10:16:25.313Z,17.8
2019-03-30T10:17:15.396Z,17.8
2019-03-30T10:18:05.013Z,17.8
2019-03-30T10:18:54.458Z,17.8
2019-03-30T10:19:48.084Z,17.8
2019-03-30T10:20:35.974Z,17.8
2019-03-30T10:21:25.196Z,17.8
2019-03-30T10:22:15.038Z,17.8
2019-03-30T10:23:05.443Z,17.7
2019-03-30T10:23:55.382Z,17.7
2019-03-30T10:24:47.951Z,17.6
2019-03-30T10:25:35.241Z,17.6
2019-03-30T10:26:26.005Z,17.5
2019-03-30T10:27:15.690Z,17.4
2019-03-30T10:28:05.895Z,17.4
2019-03-30T10:28:56.328Z,17.4
2019-03-30T10:29:45.540Z,17.4
2019-03-30T10:30:36.070Z,17.3
2019-03-30T10:31:25.645Z,17.3
2019-03-30T10:32:16.553Z,17.3
2019-03-30T10:33:06.107Z,17.3
2019-03-30T10:33:56.328Z,17.3
2019-03-30T10:34:49.627Z,17.3
2019-03-30T10:35:36.258Z,17.3
2019-03-30T10:36:26.460Z,17.3
2019-03-30T10:37:17.217Z,17.3
2019-03-30T10:38:06.688Z,17.4
2019-03-30T10:38:56.102Z,17.6
2019-03-30T10:39:46.521Z,17.6
2019-03-30T10:40:37.391Z,17.8
2019-03-30T10:41:27.120Z,17.6
2019-03-30T10:42:16.436Z,17.5
2019-03-30T10:43:07.555Z,17.4
2019-03-30T10:43:57.304Z,17.4
2019-03-30T10:44:47.114Z,17.4
2019-03-30T10:45:36.896Z,17.5
2019-03-30T10:46:27.167Z,17.6
2019-03-30T10:47:17.557Z,17.7
2019-03-30T10:48:06.851Z,17.8
2019-03-30T10:48:57.447Z,17.8
2019-03-30T10:49:47.727Z,17.8
2019-03-30T10:50:37.521Z,17.8
2019-03-30T10:51:28.237Z,17.8
2019-03-30T10:52:17.696Z,17.8
2019-03-30T10:53:07.746Z,17.8
2019-03-30T10:53:57.791Z,17.8
2019-03-30T10:55:02.669Z,17.7
2019-03-30T10:55:37.609Z,17.7
2019-03-30T10:56:28.056Z,17.6
2019-03-30T10:57:18.024Z,17.6
2019-03-30T10:58:10.581Z,17.6
2019-03-30T10:58:58.097Z,17.5
2019-03-30T10:59:48.786Z,17.5
2019-03-30T11:00:37.988Z,17.4
2019-03-30T11:01:27.975Z,17.4
2019-03-30T11:02:18.442Z,17.4
2019-03-30T11:03:08.977Z,17.4
2019-03-30T11:03:59.076Z,17.4
2019-03-30T11:04:47.494Z,17.3
2019-03-30T11:05:38.188Z,17.3
2019-03-30T11:06:28.717Z,17.3
2019-03-30T11:07:18.586Z,17.3
2019-03-30T11:08:09.375Z,17.3
2019-03-30T11:08:59.115Z,17.4
2019-03-30T11:09:51.648Z,17.4
2019-03-30T11:10:39.240Z,17.6
2019-03-30T11:11:29.495Z,17.6
2019-03-30T11:12:19.643Z,17.7
2019-03-30T11:13:09.480Z,17.6
2019-03-30T11:13:59.480Z,17.5
2019-03-30T11:14:49.630Z,17.5
2019-03-30T11:15:42.377Z,17.5
2019-03-30T11:16:29.165Z,17.5
2019-03-30T11:17:22.460Z,17.6
2019-03-30T11:18:09.232Z,17.7
2019-03-30T11:18:59.634Z,17.8
2019-03-30T11:19:49.144Z,17.8
2019-03-30T11:20:39.680Z,17.9
2019-03-30T11:21:30.262Z,17.9
2019-03-30T11:22:19.709Z,17.9
2019-03-30T11:23:10.049Z,17.9
2019-03-30T11:23:59.160Z,17.9
2019-03-30T11:24:49.780Z,17.8
2019-03-30T11:25:39.837Z,17.8
2019-03-30T11:26:30.626Z,17.8
2019-03-30T11:27:19.674Z,17.7
2019-03-30T11:28:10.584Z,17.7
2019-03-30T11:29:00.372Z,17.6
2019-03-30T11:29:49.174Z,17.6
2019-03-30T11:30:40.539Z,17.6
2019-03-30T11:31:31.125Z,17.5
2019-03-30T11:32:20.344Z,17.5
2019-03-30T11:33:09.967Z,17.5
2019-03-30T11:34:00.967Z,17.4
2019-03-30T11:34:50.488Z,17.4
2019-03-30T11:35:41.361Z,17.4
2019-03-30T11:36:30.881Z,17.4
2019-03-30T11:37:20.681Z,17.4
2019-03-30T11:38:11.522Z,17.4
2019-03-30T11:39:01.271Z,17.4
2019-03-30T11:39:51.421Z,17.4
2019-03-30T11:40:41.651Z,17.4
2019-03-30T11:41:33.858Z,17.5
2019-03-30T11:42:20.963Z,17.6
2019-03-30T11:43:11.870Z,17.8
2019-03-30T11:44:01.967Z,17.9
2019-03-30T11:44:52.193Z,18
2019-03-30T11:45:42.038Z,17.8
2019-03-30T11:46:31.559Z,17.6
2019-03-30T11:47:22.240Z,17.6
2019-03-30T11:48:11.720Z,17.6
2019-03-30T11:49:00.597Z,17.6
2019-03-30T11:49:51.648Z,17.7
2019-03-30T11:50:41.655Z,17.8
2019-03-30T11:51:32.506Z,17.8
2019-03-30T11:52:22.200Z,17.9
2019-03-30T11:53:12.677Z,17.9
2019-03-30T11:54:02.317Z,17.9
2019-03-30T11:54:52.442Z,17.9
2019-03-30T11:55:41.728Z,17.9
2019-03-30T11:56:32.343Z,17.9
2019-03-30T11:57:21.872Z,17.9
2019-03-30T11:58:11.923Z,17.8
2019-03-30T11:59:02.240Z,17.8
2019-03-30T11:59:52.269Z,17.8
2019-03-30T12:00:41.824Z,17.7
2019-03-30T12:01:32.529Z,17.7
2019-03-30T12:02:36.611Z,17.6
2019-03-30T12:03:12.810Z,17.6
2019-03-30T12:04:02.039Z,17.6
2019-03-30T12:06:24.876Z,17.5
2019-03-30T12:07:14.599Z,17.5
2019-03-30T12:08:19.119Z,17.5
2019-03-30T12:08:55.479Z,17.5
2019-03-30T12:10:14.356Z,17.5
2019-03-30T12:10:48.722Z,17.5
2019-03-30T12:11:24.112Z,17.5
2019-03-30T12:12:14.494Z,17.5
2019-03-30T12:13:20.326Z,17.6
2019-03-30T12:13:55.551Z,17.7
2019-03-30T12:14:44.936Z,17.8
2019-03-30T12:15:36.588Z,17.8
2019-03-30T12:16:40.075Z,17.9
2019-03-30T12:17:15.804Z,17.9
2019-03-30T12:18:06.346Z,17.8
2019-03-30T12:19:14.799Z,17.7
2019-03-30T12:19:45.217Z,17.7
2019-03-30T12:20:35.822Z,17.7
2019-03-30T12:21:25.313Z,17.8
2019-03-30T12:22:15.342Z,17.8
2019-03-30T12:23:06.092Z,17.9
2019-03-30T12:23:55.606Z,18
2019-03-30T12:24:44.993Z,18.1
2019-03-30T12:25:45.988Z,18.1
2019-03-30T12:26:25.666Z,18.1
2019-03-30T12:27:16.036Z,18.1
2019-03-30T12:28:04.690Z,18.1
2019-03-30T12:28:56.158Z,18.1
2019-03-30T12:29:50.118Z,18.1
2019-03-30T12:30:35.918Z,18
2019-03-30T12:31:26.343Z,17.9
2019-03-30T12:32:16.413Z,17.9
2019-03-30T12:33:06.196Z,17.9
2019-03-30T12:33:55.849Z,17.8
2019-03-30T12:34:46.434Z,17.8
2019-03-30T12:35:35.685Z,17.8
2019-03-30T12:36:26.509Z,17.7
2019-03-30T12:37:16.985Z,17.7
2019-03-30T12:38:06.608Z,17.6
2019-03-30T12:38:56.685Z,17.6
2019-03-30T12:39:46.452Z,17.6
2019-03-30T12:40:36.520Z,17.6
2019-03-30T12:41:26.589Z,17.6
2019-03-30T12:42:17.165Z,17.5
2019-03-30T12:43:07.230Z,17.5
2019-03-30T12:43:57.102Z,17.5
2019-03-30T12:44:46.762Z,17.5
2019-03-30T12:45:36.349Z,17.6
2019-03-30T12:46:27.030Z,17.6
2019-03-30T12:47:19.777Z,17.7
2019-03-30T12:48:11.602Z,17.8
2019-03-30T12:49:12.054Z,17.9
2019-03-30T12:49:50.527Z,17.9
2019-03-30T12:50:38.236Z,17.8
2019-03-30T14:07:23.249Z,18.4
2019-03-30T14:08:13.513Z,18.4
2019-03-30T14:09:03.946Z,18.4
2019-03-30T14:09:54.168Z,18.4
2019-03-30T14:10:47.133Z,18.4
2019-03-30T14:11:33.511Z,18.3
2019-03-30T14:12:23.600Z,18.3
2019-03-30T14:13:13.406Z,18.3
2019-03-30T14:14:03.474Z,18.3
2019-03-30T14:14:53.256Z,18.3
2019-03-30T14:15:43.349Z,18.2
2019-03-30T14:16:33.631Z,18.2
2019-03-30T14:17:27.587Z,18.1
2019-03-30T14:18:14.073Z,18.1
2019-03-30T14:19:04.347Z,18.1
2019-03-30T14:19:53.372Z,18.1
2019-03-30T14:20:44.426Z,18.1
2019-03-30T14:21:34.273Z,18.1
2019-03-30T14:22:24.000Z,18.1
2019-03-30T14:23:15.154Z,18.1
2019-03-30T14:24:04.702Z,18.1
2019-03-30T14:24:54.737Z,18.2
2019-03-30T14:25:45.276Z,18.3
2019-03-30T14:26:40.948Z,18.4
2019-03-30T14:27:25.184Z,18.5
2019-03-30T14:28:15.493Z,18.6
2019-03-30T14:29:05.511Z,18.6
2019-03-30T14:29:59.326Z,18.4
2019-03-30T14:30:45.681Z,18.3
2019-03-30T14:31:35.951Z,18.3
2019-03-30T14:32:26.036Z,18.3
2019-03-30T14:33:15.818Z,18.3
2019-03-30T14:34:05.142Z,18.4
2019-03-30T14:34:56.234Z,18.5
2019-03-30T14:35:49.581Z,18.6
2019-03-30T14:36:35.521Z,18.6
2019-03-30T14:37:25.275Z,18.6
2019-03-30T14:38:15.893Z,18.6
2019-03-30T14:40:45.261Z,18.6
2019-03-30T14:41:35.880Z,18.6
2019-03-30T14:42:26.495Z,18.6
2019-03-30T14:43:16.003Z,18.6
2019-03-30T14:44:06.711Z,18.6
2019-03-30T14:44:56.185Z,18.5
2019-03-30T14:45:47.040Z,18.5
2019-03-30T14:46:37.130Z,18.4
2019-03-30T14:47:26.910Z,18.4
2019-03-30T14:48:17.290Z,18.4
2019-03-30T14:49:06.404Z,18.4
2019-03-30T14:49:57.375Z,18.3
2019-03-30T14:50:47.077Z,18.3
2019-03-30T14:51:37.152Z,18.3
2019-03-30T14:52:27.581Z,18.3
2019-03-30T14:53:19.351Z,18.3
2019-03-30T14:54:07.477Z,18.3
2019-03-30T14:55:02.875Z,18.3
2019-03-30T14:55:50.361Z,18.3
2019-03-30T14:56:52.827Z,18.3
2019-03-30T14:57:27.812Z,18.3
2019-03-30T14:58:18.776Z,18.3
2019-03-30T14:59:23.024Z,18.3
2019-03-30T14:59:58.529Z,18.4
2019-03-30T15:00:49.547Z,18.4
2019-03-30T15:01:39.347Z,18.5
2019-03-30T15:02:27.866Z,18.6
2019-03-30T15:04:08.579Z,18.8
2019-03-30T15:05:02.196Z,18.6
2019-03-30T15:05:48.471Z,18.4
2019-03-30T15:06:38.826Z,18.4
2019-03-30T15:07:28.018Z,18.3
2019-03-30T15:08:18.293Z,18.4
2019-03-30T15:09:08.209Z,18.5
2019-03-30T15:09:58.776Z,18.6
2019-03-30T15:10:48.295Z,18.6
2019-03-30T15:12:28.967Z,18.8
2019-03-30T15:13:18.366Z,18.8
2019-03-30T15:14:08.346Z,18.8
2019-03-30T15:14:58.670Z,18.8
2019-03-30T15:15:48.276Z,18.8
2019-03-30T15:16:38.575Z,18.8
2019-03-30T15:17:29.336Z,18.8
2019-03-30T15:18:18.840Z,18.8
2019-03-30T15:19:09.013Z,18.8
2019-03-30T15:19:59.288Z,18.8
2019-03-30T15:20:49.378Z,18.8
2019-03-30T15:21:39.358Z,18.8
2019-03-30T15:24:59.530Z,18.6
2019-03-30T15:25:49.878Z,18.6
2019-03-30T15:26:40.588Z,18.6
2019-03-30T15:27:30.517Z,18.6
2019-03-30T15:28:20.230Z,18.5
2019-03-30T15:29:09.859Z,18.5
2019-03-30T15:30:00.991Z,18.5
2019-03-30T15:30:49.965Z,18.4
2019-03-30T15:31:40.320Z,18.4
2019-03-30T15:32:30.903Z,18.5
2019-03-30T15:33:20.184Z,18.4
2019-03-30T15:34:10.527Z,18.4
2019-03-30T15:35:04.727Z,18.4
2019-03-30T15:35:50.682Z,18.4
2019-03-30T15:36:40.787Z,18.5
2019-03-30T15:37:29.715Z,18.4
2019-03-30T15:38:24.635Z,18.3
2019-03-30T15:39:11.401Z,18.2
2019-03-30T15:40:01.342Z,18.1
2019-03-30T15:40:50.997Z,18.1
2019-03-30T15:41:40.822Z,18.1
2019-03-30T15:42:31.150Z,18.1
2019-03-30T15:43:21.442Z,18
2019-03-30T15:44:11.507Z,18
2019-03-30T15:45:00.877Z,18